createdAt,value
2023-05-11T00:01:00.658Z,1013.13
2023-05-11T00:06:01.717Z,1013.10
2023-05-11T00:11:02.749Z,1012.95
2023-05-11T00:16:03.846Z,1012.98
2023-05-11T00:21:04.862Z,1012.94
2023-05-11T00:26:05.919Z,1012.97
2023-05-11T00:31:08.973Z,1012.98
2023-05-11T00:36:07.986Z,1012.92
2023-05-11T00:41:09.058Z,1012.93
2023-05-11T00:46:10.087Z,1012.89
2023-05-11T00:51:11.121Z,1012.96
2023-05-11T00:56:12.455Z,1013.00
2023-05-11T01:01:13.587Z,1013.04
2023-05-11T01:06:14.624Z,1013.02
2023-05-11T01:11:15.749Z,1012.98
2023-05-11T01:16:16.727Z,1012.98
2023-05-11T01:21:17.753Z,1013.03
2023-05-11T01:26:19.768Z,1012.89
2023-05-11T01:31:19.841Z,1012.89
2023-05-11T01:36:19.820Z,1012.95
2023-05-11T01:41:19.904Z,1012.90
2023-05-11T01:46:18.970Z,1012.93
2023-05-11T01:51:20.009Z,1012.89
2023-05-11T01:56:21.034Z,1012.91
2023-05-11T02:01:23.192Z,1012.93
2023-05-11T02:06:22.203Z,1012.87
2023-05-11T02:11:24.247Z,1012.81
2023-05-11T02:16:24.361Z,1012.79
2023-05-11T02:21:24.723Z,1012.85
2023-05-11T02:26:23.749Z,1012.81
2023-05-11T02:31:24.836Z,1012.80
2023-05-11T02:36:25.971Z,1012.78
2023-05-11T02:41:27.041Z,1012.66
2023-05-11T02:46:28.176Z,1012.70
2023-05-11T02:51:31.191Z,1012.69
2023-05-11T02:56:31.239Z,1012.69
2023-05-11T03:01:30.867Z,1012.62
2023-05-11T03:06:28.978Z,1012.67
2023-05-11T03:11:31.006Z,1012.80
2023-05-11T03:16:30.176Z,1012.73
2023-05-11T03:21:33.167Z,1012.72
2023-05-11T03:26:32.488Z,1012.73
2023-05-11T03:31:33.556Z,1012.67
2023-05-11T03:36:35.608Z,1012.69
2023-05-11T03:41:34.722Z,1012.66
2023-05-11T03:46:35.944Z,1012.56
2023-05-11T03:51:37.967Z,1012.60
2023-05-11T03:56:37.117Z,1012.58
2023-05-11T04:01:38.333Z,1012.63
2023-05-11T04:06:40.387Z,1012.65
2023-05-11T04:11:39.543Z,1012.54
2023-05-11T04:16:40.629Z,1012.59
2023-05-11T04:21:41.692Z,1012.53
2023-05-11T04:26:42.720Z,1012.51
2023-05-11T04:31:44.767Z,1012.53
2023-05-11T04:36:43.899Z,1012.49
2023-05-11T04:41:45.086Z,1012.49
2023-05-11T04:46:47.196Z,1012.51
2023-05-11T04:51:46.313Z,1012.48
2023-05-11T04:56:47.454Z,1012.58
2023-05-11T05:01:48.486Z,1012.57
2023-05-11T05:06:49.624Z,1012.59
2023-05-11T05:11:51.661Z,1012.65
2023-05-11T05:16:50.827Z,1012.60
2023-05-11T05:21:51.878Z,1012.61
2023-05-11T05:26:52.921Z,1012.66
2023-05-11T05:31:54.953Z,1012.65
2023-05-11T05:36:54.991Z,1012.68
2023-05-11T05:41:55.042Z,1012.63
2023-05-11T05:46:53.124Z,1012.64
2023-05-11T05:51:54.220Z,1012.62
2023-05-11T05:56:56.346Z,1012.59
2023-05-11T06:01:55.394Z,1012.63
2023-05-11T06:06:56.540Z,1012.66
2023-05-11T06:11:57.772Z,1012.61
2023-05-11T06:16:58.898Z,1012.60
2023-05-11T06:22:00.061Z,1012.57
2023-05-11T06:27:01.100Z,1012.61
2023-05-11T06:32:03.250Z,1012.58
2023-05-11T06:37:03.270Z,1012.66
2023-05-11T06:42:05.059Z,1012.65
2023-05-11T06:47:05.484Z,1012.60
2023-05-11T06:52:06.541Z,1012.59
2023-05-11T06:57:06.702Z,1012.56
2023-05-11T07:02:06.703Z,1012.57
2023-05-11T07:07:05.762Z,1012.58
2023-05-11T07:12:23.141Z,1012.61
2023-05-11T07:17:08.232Z,1012.62
2023-05-11T07:22:09.243Z,1012.64
2023-05-11T07:27:11.310Z,1012.71
2023-05-11T07:32:11.353Z,1012.64
2023-05-11T07:37:11.451Z,1012.66
2023-05-11T07:42:11.519Z,1012.68
2023-05-11T07:47:10.601Z,1012.66
2023-05-11T07:52:11.765Z,1012.63
2023-05-11T07:57:13.906Z,1012.55
2023-05-11T08:02:13.403Z,1012.51
2023-05-11T08:07:12.583Z,1012.51
2023-05-11T08:12:13.618Z,1012.45
2023-05-11T08:17:14.646Z,1012.40
2023-05-11T08:22:16.719Z,1012.40
2023-05-11T08:27:15.770Z,1012.40
2023-05-11T08:32:18.870Z,1012.40
2023-05-11T08:37:18.901Z,1012.35
2023-05-11T08:42:17.999Z,1012.31
2023-05-11T08:47:22.664Z,1012.30
2023-05-11T08:52:21.055Z,1012.23
2023-05-11T08:57:20.104Z,1012.21
2023-05-11T09:02:21.590Z,1012.21
2023-05-11T09:07:23.679Z,1012.33
2023-05-11T09:12:23.735Z,1012.28
2023-05-11T09:17:23.805Z,1012.30
2023-05-11T09:22:23.822Z,1012.28
2023-05-11T09:27:22.856Z,1012.26
2023-05-11T09:32:24.922Z,1012.22
2023-05-11T09:37:23.954Z,1012.23
2023-05-11T09:42:25.034Z,1012.12
2023-05-11T09:47:26.137Z,1012.06
2023-05-11T09:52:27.192Z,1012.05
2023-05-11T09:57:29.260Z,1012.07
2023-05-11T10:02:28.433Z,1012.03
2023-05-11T10:07:30.534Z,1011.99
2023-05-11T10:12:29.597Z,1011.98
2023-05-11T10:17:30.720Z,1012.04
2023-05-11T10:22:32.880Z,1011.96
2023-05-11T10:27:31.942Z,1012.06
2023-05-11T10:32:33.981Z,1011.98
2023-05-11T10:37:33.012Z,1011.90
2023-05-11T10:42:35.098Z,1011.91
2023-05-11T10:47:35.182Z,1011.78
2023-05-11T10:52:35.279Z,1011.73
2023-05-11T10:57:35.334Z,1011.72
2023-05-11T11:02:35.412Z,1011.73
2023-05-11T11:07:34.421Z,1011.70
2023-05-11T11:12:35.484Z,1011.56
2023-05-11T11:17:36.584Z,1011.49
2023-05-11T11:22:37.646Z,1011.39
2023-05-11T11:27:38.713Z,1011.38
2023-05-11T11:32:39.777Z,1011.36
2023-05-11T11:37:41.798Z,1011.27
2023-05-11T11:42:41.846Z,1011.17
2023-05-11T11:47:41.883Z,1011.17
2023-05-11T11:52:40.958Z,1011.19
2023-05-11T11:57:43.170Z,1011.07
2023-05-11T12:02:42.343Z,1011.14
2023-05-11T12:07:44.387Z,1011.03
2023-05-11T12:12:43.427Z,1010.96
2023-05-11T12:17:45.529Z,1010.99
2023-05-11T12:22:46.542Z,1010.93
2023-05-11T12:27:45.650Z,1010.89
2023-05-11T12:32:46.734Z,1010.91
2023-05-11T12:37:47.775Z,1010.83
2023-05-11T12:42:49.806Z,1010.85
2023-05-11T12:47:48.942Z,1010.90
2023-05-11T12:52:51.004Z,1010.90
2023-05-11T12:57:50.060Z,1010.78
2023-05-11T13:02:51.282Z,1010.74
2023-05-11T13:07:52.337Z,1010.77
2023-05-11T13:12:54.429Z,1010.75
2023-05-11T13:17:52.522Z,1010.63
2023-05-11T13:22:53.675Z,1010.63
2023-05-11T13:27:54.787Z,1010.54
2023-05-11T13:32:56.891Z,1010.55
2023-05-11T13:37:56.939Z,1010.52
2023-05-11T13:42:56.987Z,1010.55
2023-05-11T13:47:56.096Z,1010.52
2023-05-11T13:52:58.109Z,1010.51
2023-05-11T13:57:57.198Z,1010.44
2023-05-11T14:02:59.332Z,1010.41
2023-05-11T14:07:59.341Z,1010.38
2023-05-11T14:12:59.372Z,1010.41
2023-05-11T14:17:58.485Z,1010.37
2023-05-11T14:23:00.527Z,1010.41
2023-05-11T14:28:00.606Z,1010.53
2023-05-11T14:32:59.654Z,1010.60
2023-05-11T14:38:00.706Z,1010.54
2023-05-11T14:43:01.751Z,1010.49
2023-05-11T14:48:02.822Z,1010.51
2023-05-11T14:53:04.864Z,1010.50
2023-05-11T14:58:04.920Z,1010.50
2023-05-11T15:03:04.005Z,1010.54
2023-05-11T15:13:07.103Z,1010.74
2023-05-11T15:18:06.203Z,1010.61
2023-05-11T15:23:07.201Z,1010.67
2023-05-11T15:28:08.240Z,1010.64
2023-05-11T15:33:09.797Z,1010.67
2023-05-11T15:38:09.147Z,1010.61
2023-05-11T15:43:10.231Z,1010.60
2023-05-11T15:48:11.346Z,1010.53
2023-05-11T15:53:12.398Z,1010.48
2023-05-11T15:58:13.525Z,1010.49
2023-05-11T16:03:15.736Z,1010.43
2023-05-11T16:08:15.842Z,1010.47
2023-05-11T16:13:15.983Z,1010.40
2023-05-11T16:18:16.154Z,1010.38
2023-05-11T16:23:16.245Z,1010.39
2023-05-11T16:28:15.354Z,1010.42
2023-05-11T16:33:17.544Z,1010.36
2023-05-11T16:38:17.657Z,1010.35
2023-05-11T16:43:16.869Z,1010.39
2023-05-11T16:48:19.119Z,1010.38
2023-05-11T16:53:19.494Z,1010.47
2023-05-11T16:58:18.938Z,1010.46
2023-05-11T17:03:19.474Z,1010.52
2023-05-11T17:08:18.853Z,1010.50
2023-05-11T17:13:20.330Z,1010.47
2023-05-11T17:18:19.877Z,1010.46
2023-05-11T17:23:20.360Z,1010.50
2023-05-11T17:28:19.901Z,1010.48
2023-05-11T17:33:20.557Z,1010.51
2023-05-11T17:38:21.606Z,1010.55
2023-05-11T17:43:21.124Z,1010.57
2023-05-11T17:48:21.694Z,1010.58
2023-05-11T17:53:22.244Z,1010.61
2023-05-11T17:58:21.748Z,1010.57
2023-05-11T18:03:21.384Z,1010.58
2023-05-11T18:08:21.947Z,1010.56
2023-05-11T18:13:21.482Z,1010.56
2023-05-11T18:18:21.059Z,1010.56
2023-05-11T18:23:21.645Z,1010.60
2023-05-11T18:28:23.145Z,1010.69
2023-05-11T18:33:20.774Z,1010.70
2023-05-11T18:38:21.366Z,1010.70
2023-05-11T18:43:20.941Z,1010.72
2023-05-11T18:48:21.816Z,1010.73
2023-05-11T18:53:21.384Z,1010.79
2023-05-11T18:58:22.075Z,1010.77
2023-05-11T19:03:21.754Z,1010.75
2023-05-11T19:08:22.347Z,1010.79
2023-05-11T19:13:21.957Z,1010.84
2023-05-11T19:18:21.582Z,1010.88
2023-05-11T19:23:22.130Z,1010.84
2023-05-11T19:28:42.776Z,1010.89
2023-05-11T19:33:22.517Z,1010.95
2023-05-11T19:38:23.087Z,1010.98
2023-05-11T19:43:23.610Z,1011.04
2023-05-11T19:48:31.335Z,1011.04
2023-05-11T19:53:23.858Z,1011.07
2023-05-11T19:58:23.444Z,1011.09
2023-05-11T20:03:26.465Z,1011.09
2023-05-11T20:08:24.462Z,1011.20
2023-05-11T20:13:23.992Z,1011.24
2023-05-11T20:18:24.585Z,1011.26
2023-05-11T20:23:24.129Z,1011.22
2023-05-11T20:28:24.674Z,1011.25
2023-05-11T20:38:25.645Z,1011.23
2023-05-11T20:43:25.144Z,1011.18
2023-05-11T20:48:39.037Z,1011.17
2023-05-11T20:53:27.532Z,1011.15
2023-05-11T20:58:27.672Z,1011.11
2023-05-11T21:03:27.873Z,1011.10
2023-05-11T21:08:27.923Z,1011.10
2023-05-11T21:13:26.978Z,1011.03
2023-05-11T21:18:29.148Z,1010.99
2023-05-11T21:23:28.219Z,1010.99
2023-05-11T21:28:29.316Z,1011.07
2023-05-11T21:33:31.389Z,1011.08
2023-05-11T21:38:30.453Z,1011.04
2023-05-11T21:43:31.502Z,1011.04
2023-05-11T21:48:33.663Z,1011.02
2023-05-11T21:53:32.701Z,1011.02
2023-05-11T21:58:33.806Z,1011.09
2023-05-11T22:03:35.969Z,1011.07
2023-05-11T22:08:35.989Z,1011.08
2023-05-11T22:13:35.073Z,1011.15
2023-05-11T22:18:36.196Z,1011.15
2023-05-11T22:23:37.227Z,1011.18
2023-05-11T22:28:38.302Z,1011.17
2023-05-11T22:33:41.359Z,1011.17
2023-05-11T22:38:40.369Z,1011.14
2023-05-11T22:43:41.415Z,1011.12
2023-05-11T22:48:43.437Z,1011.14
2023-05-11T22:53:44.492Z,1011.17
2023-05-11T22:58:43.530Z,1011.19
2023-05-11T23:03:44.585Z,1011.22
2023-05-11T23:08:45.618Z,1011.26
2023-05-11T23:13:47.654Z,1011.21
2023-05-11T23:18:47.862Z,1011.24
2023-05-11T23:23:48.005Z,1011.19
2023-05-11T23:28:47.041Z,1011.16
2023-05-11T23:33:49.099Z,1011.08
2023-05-11T23:38:49.156Z,1010.98
2023-05-11T23:43:48.157Z,1010.98
2023-05-11T23:48:49.202Z,1010.93
2023-05-11T23:53:50.251Z,1010.91
2023-05-11T23:58:52.301Z,1010.94
